createdAt,value
2024-03-13T00:00:11.979Z,9.43
2024-03-13T00:02:38.852Z,9.70
2024-03-13T00:05:06.216Z,9.88
2024-03-13T00:07:33.143Z,10.07
2024-03-13T00:10:02.047Z,10.73
2024-03-13T00:12:32.076Z,9.27
2024-03-13T00:14:58.819Z,9.57
2024-03-13T00:17:25.614Z,10.73
2024-03-13T00:19:52.997Z,10.38
2024-03-13T00:22:22.928Z,10.32
2024-03-13T00:24:50.827Z,11.30
2024-03-13T00:27:17.624Z,10.52
2024-03-13T00:29:46.369Z,9.77
2024-03-13T00:32:16.576Z,10.13
2024-03-13T00:34:44.623Z,10.70
2024-03-13T00:37:14.917Z,10.52
2024-03-13T00:39:42.984Z,10.35
2024-03-13T00:42:13.064Z,10.38
2024-03-13T00:44:40.574Z,10.63
2024-03-13T00:47:08.141Z,10.40
2024-03-13T00:49:35.459Z,10.98
2024-03-13T00:52:02.652Z,10.50
2024-03-13T00:54:29.535Z,10.65
2024-03-13T00:56:57.753Z,11.10
2024-03-13T00:59:31.291Z,11.07
2024-03-13T01:01:58.200Z,11.18
2024-03-13T01:04:26.808Z,11.57
2024-03-13T01:06:53.788Z,10.90
2024-03-13T01:09:21.234Z,11.75
2024-03-13T01:11:48.127Z,11.40
2024-03-13T01:14:15.943Z,11.68
2024-03-13T01:16:43.008Z,11.65
2024-03-13T01:19:09.832Z,11.65
2024-03-13T01:21:36.656Z,11.45
2024-03-13T01:24:03.551Z,11.57
2024-03-13T01:26:35.414Z,11.00
2024-03-13T01:29:02.533Z,11.45
2024-03-13T01:31:30.069Z,10.90
2024-03-13T01:33:57.047Z,11.25
2024-03-13T01:36:43.882Z,10.98
2024-03-13T01:39:11.067Z,11.45
2024-03-13T01:41:56.466Z,11.50
2024-03-13T01:44:41.610Z,11.45
2024-03-13T01:47:35.474Z,11.73
2024-03-13T01:50:23.011Z,11.07
2024-03-13T01:53:08.106Z,11.55
2024-03-13T01:55:36.686Z,11.25
2024-03-13T01:58:06.586Z,12.20
2024-03-13T02:00:51.781Z,12.32
2024-03-13T02:03:23.398Z,11.63
2024-03-13T02:05:51.421Z,11.60
2024-03-13T02:08:19.243Z,12.27
2024-03-13T02:10:46.675Z,11.63
2024-03-13T02:13:14.243Z,11.80
2024-03-13T02:15:42.585Z,10.95
2024-03-13T02:18:30.994Z,11.85
2024-03-13T02:21:00.948Z,11.85
2024-03-13T02:23:31.746Z,11.63
2024-03-13T02:26:01.765Z,11.13
2024-03-13T02:28:31.422Z,11.82
2024-03-13T02:30:58.221Z,11.38
2024-03-13T02:33:25.406Z,11.45
2024-03-13T02:35:52.068Z,11.70
2024-03-13T02:38:19.014Z,11.30
2024-03-13T02:40:45.692Z,11.98
2024-03-13T02:43:12.433Z,12.30
2024-03-13T02:45:43.809Z,12.18
2024-03-13T02:48:11.838Z,12.70
2024-03-13T02:50:39.938Z,11.73
2024-03-13T02:53:09.158Z,12.07
2024-03-13T02:55:36.300Z,12.43
2024-03-13T02:58:03.148Z,12.95
2024-03-13T03:00:32.999Z,12.43
2024-03-13T03:02:59.703Z,13.70
2024-03-13T03:05:26.656Z,13.40
2024-03-13T03:07:53.606Z,12.50
2024-03-13T03:10:20.763Z,12.52
2024-03-13T03:12:47.538Z,12.73
2024-03-13T03:15:14.264Z,13.70
2024-03-13T03:17:42.367Z,13.55
2024-03-13T03:20:09.681Z,12.98
2024-03-13T03:22:36.353Z,13.45
2024-03-13T03:25:03.142Z,13.20
2024-03-13T03:27:30.794Z,14.35
2024-03-13T03:29:57.451Z,13.73
2024-03-13T03:32:24.099Z,13.73
2024-03-13T03:34:51.099Z,15.07
2024-03-13T03:37:18.071Z,14.27
2024-03-13T03:39:44.880Z,14.77
2024-03-13T03:42:11.560Z,13.38
2024-03-13T03:44:38.290Z,12.60
2024-03-13T03:47:05.882Z,14.18
2024-03-13T03:49:32.670Z,14.70
2024-03-13T03:51:59.377Z,14.43
2024-03-13T03:54:26.139Z,15.52
2024-03-13T03:56:53.470Z,14.95
2024-03-13T03:59:20.272Z,14.85
2024-03-13T04:01:47.774Z,14.57
2024-03-13T04:04:14.874Z,14.98
2024-03-13T04:06:45.015Z,14.23
2024-03-13T04:09:17.573Z,15.02
2024-03-13T04:11:44.435Z,14.13
2024-03-13T04:14:12.204Z,14.38
2024-03-13T04:16:40.037Z,13.80
2024-03-13T04:19:07.653Z,14.75
2024-03-13T04:21:35.059Z,15.02
2024-03-13T04:24:02.151Z,15.10
2024-03-13T04:26:30.492Z,14.55
2024-03-13T04:29:00.268Z,14.75
2024-03-13T04:31:27.584Z,13.43
2024-03-13T04:33:55.149Z,14.23
2024-03-13T04:36:23.389Z,15.68
2024-03-13T04:38:52.603Z,14.43
2024-03-13T04:41:24.002Z,14.35
2024-03-13T04:43:51.097Z,14.63
2024-03-13T04:46:20.616Z,13.93
2024-03-13T04:48:47.488Z,14.90
2024-03-13T04:51:16.932Z,13.98
2024-03-13T04:53:47.444Z,14.45
2024-03-13T04:56:14.105Z,14.98
2024-03-13T04:58:41.276Z,15.05
2024-03-13T05:01:09.518Z,13.73
2024-03-13T05:03:37.053Z,14.27
2024-03-13T05:06:03.795Z,13.65
2024-03-13T05:08:30.564Z,15.50
2024-03-13T05:10:57.849Z,15.63
2024-03-13T05:13:25.502Z,14.95
2024-03-13T05:15:53.630Z,15.02
2024-03-13T05:18:24.427Z,15.98
2024-03-13T05:20:51.075Z,14.52
2024-03-13T05:23:17.801Z,16.13
2024-03-13T05:25:44.771Z,14.70
2024-03-13T05:28:11.622Z,15.35
2024-03-13T05:30:39.088Z,15.23
2024-03-13T05:33:07.395Z,15.32
2024-03-13T05:35:34.497Z,14.75
2024-03-13T05:38:01.475Z,15.35
2024-03-13T05:40:28.288Z,14.68
2024-03-13T05:42:55.014Z,14.25
2024-03-13T05:45:21.704Z,14.52
2024-03-13T05:47:52.618Z,14.32
2024-03-13T05:50:19.436Z,13.88
2024-03-13T05:52:48.805Z,14.30
2024-03-13T05:55:18.000Z,13.55
2024-03-13T05:57:45.636Z,14.38
2024-03-13T06:00:18.798Z,14.93
2024-03-13T06:02:45.491Z,14.45
2024-03-13T06:05:18.818Z,14.10
2024-03-13T06:07:47.613Z,14.05
2024-03-13T06:10:14.461Z,14.68
2024-03-13T06:12:41.756Z,14.88
2024-03-13T06:15:09.097Z,15.35
2024-03-13T06:17:36.222Z,15.43
2024-03-13T06:20:14.547Z,14.50
2024-03-13T06:22:42.446Z,14.85
2024-03-13T06:25:10.076Z,15.52
2024-03-13T06:27:37.191Z,14.85
2024-03-13T06:30:04.528Z,15.25
2024-03-13T06:32:31.786Z,15.15
2024-03-13T06:34:58.900Z,13.90
2024-03-13T06:37:25.778Z,15.13
2024-03-13T06:39:53.435Z,13.82
2024-03-13T06:42:20.587Z,14.40
2024-03-13T06:44:50.132Z,14.13
2024-03-13T06:47:18.388Z,14.73
2024-03-13T06:49:45.877Z,14.48
2024-03-13T06:52:15.893Z,15.05
2024-03-13T06:54:43.092Z,15.00
2024-03-13T06:57:13.711Z,15.38
2024-03-13T06:59:40.906Z,15.38
2024-03-13T07:02:07.981Z,15.05
2024-03-13T07:04:34.901Z,14.77
2024-03-13T07:07:01.957Z,14.02
2024-03-13T07:09:29.266Z,15.18
2024-03-13T07:11:58.664Z,15.75
2024-03-13T07:14:25.956Z,14.60
2024-03-13T07:16:53.068Z,14.25
2024-03-13T07:19:21.750Z,14.85
2024-03-13T07:21:49.041Z,14.95
2024-03-13T07:24:15.887Z,15.38
2024-03-13T07:26:43.525Z,15.65
2024-03-13T07:29:10.786Z,15.18
2024-03-13T07:31:40.788Z,15.60
2024-03-13T07:34:11.429Z,15.25
2024-03-13T07:36:39.568Z,15.75
2024-03-13T07:39:13.014Z,16.90
2024-03-13T07:41:41.268Z,16.13
2024-03-13T07:44:08.866Z,16.98
2024-03-13T07:46:36.182Z,15.70
2024-03-13T07:49:04.118Z,17.05
2024-03-13T07:51:31.076Z,15.95
2024-03-13T07:53:58.188Z,16.60
2024-03-13T07:56:25.333Z,16.33
2024-03-13T07:58:52.518Z,16.35
2024-03-13T08:01:19.466Z,15.85
2024-03-13T08:03:46.411Z,16.58
2024-03-13T09:06:34.827Z,8.23
2024-03-13T09:09:04.726Z,7.85
2024-03-13T09:11:32.215Z,8.10
2024-03-13T09:14:05.174Z,6.68
2024-03-13T09:16:37.206Z,5.95
2024-03-13T09:19:05.396Z,4.22
2024-03-13T09:21:32.234Z,4.10
2024-03-13T09:23:59.477Z,3.67
2024-03-13T09:26:26.777Z,3.90
2024-03-13T09:28:56.645Z,3.60
2024-03-13T09:31:25.629Z,3.83
2024-03-13T09:33:53.088Z,3.78
2024-03-13T09:36:20.252Z,4.78
2024-03-13T09:38:47.038Z,4.13
2024-03-13T09:41:16.521Z,4.65
2024-03-13T09:43:43.376Z,4.45
2024-03-13T09:46:14.626Z,5.10
2024-03-13T09:48:43.895Z,4.55
2024-03-13T09:51:11.962Z,4.47
2024-03-13T09:53:42.554Z,4.60
2024-03-13T09:56:15.345Z,5.07
2024-03-13T09:58:46.721Z,5.35
2024-03-13T10:01:22.682Z,5.30
2024-03-13T10:03:58.225Z,5.07
2024-03-13T10:06:25.525Z,4.72
2024-03-13T10:08:52.290Z,5.18
2024-03-13T10:11:19.926Z,5.57
2024-03-13T10:13:46.685Z,4.82
2024-03-13T10:16:13.464Z,5.20
2024-03-13T10:18:48.998Z,5.30
2024-03-13T10:21:38.335Z,5.72
2024-03-13T10:24:07.725Z,5.72
2024-03-13T10:26:40.647Z,4.90
2024-03-13T10:29:09.842Z,5.50
2024-03-13T10:31:37.497Z,5.72
2024-03-13T10:34:04.480Z,6.03
2024-03-13T10:36:32.437Z,5.60
2024-03-13T10:39:01.792Z,5.57
2024-03-13T10:41:31.772Z,5.30
2024-03-13T10:43:59.437Z,5.88
2024-03-13T10:46:26.326Z,6.05
2024-03-13T10:48:54.186Z,5.40
2024-03-13T10:51:23.213Z,5.82
2024-03-13T10:53:51.069Z,5.18
2024-03-13T10:56:19.118Z,5.03
2024-03-13T10:58:47.870Z,4.22
2024-03-13T11:01:19.225Z,4.68
2024-03-13T11:03:47.424Z,4.60
2024-03-13T11:06:16.637Z,4.50
2024-03-13T11:08:54.408Z,3.75
2024-03-13T11:11:23.623Z,3.45
2024-03-13T11:13:55.905Z,3.60
2024-03-13T11:16:24.468Z,3.40
2024-03-13T11:18:52.073Z,3.40
2024-03-13T11:21:25.917Z,3.10
2024-03-13T11:23:58.011Z,2.88
2024-03-13T11:26:34.365Z,3.10
2024-03-13T11:29:03.236Z,3.60
2024-03-13T11:31:29.965Z,3.05
2024-03-13T11:33:58.674Z,3.50
2024-03-13T11:36:26.726Z,3.58
2024-03-13T11:38:53.492Z,3.78
2024-03-13T11:41:20.406Z,4.55
2024-03-13T11:43:47.833Z,4.15
2024-03-13T11:46:18.011Z,4.40
2024-03-13T11:48:45.079Z,4.68
2024-03-13T11:51:12.129Z,4.30
2024-03-13T11:53:42.406Z,5.05
2024-03-13T11:56:14.536Z,4.68
2024-03-13T11:58:41.587Z,5.82
2024-03-13T12:01:19.127Z,5.22
2024-03-13T12:03:46.671Z,5.35
2024-03-13T12:06:25.500Z,6.35
2024-03-13T12:08:55.071Z,6.25
2024-03-13T12:11:22.639Z,5.55
2024-03-13T12:13:50.557Z,6.13
2024-03-13T12:16:18.242Z,6.40
2024-03-13T12:18:46.651Z,6.20
2024-03-13T12:21:13.656Z,6.75
2024-03-13T12:23:40.662Z,6.45
2024-03-13T12:26:07.351Z,7.45
2024-03-13T12:28:34.444Z,6.85
2024-03-13T12:31:02.407Z,6.60
2024-03-13T12:33:29.198Z,6.30
2024-03-13T12:35:57.073Z,6.32
2024-03-13T12:38:37.691Z,6.43
2024-03-13T12:41:05.324Z,7.07
2024-03-13T12:43:32.413Z,6.38
2024-03-13T12:46:04.925Z,5.88
2024-03-13T12:48:34.871Z,5.88
2024-03-13T12:51:05.456Z,6.05
2024-03-13T12:53:32.437Z,6.57
2024-03-13T12:55:59.378Z,6.07
2024-03-13T12:58:30.548Z,6.47
2024-03-13T13:00:57.279Z,6.68
2024-03-13T13:03:24.252Z,7.10
2024-03-13T13:05:51.100Z,6.90
2024-03-13T13:08:19.095Z,6.22
2024-03-13T13:10:53.297Z,5.47
2024-03-13T13:13:20.142Z,5.43
2024-03-13T13:15:47.041Z,5.25
2024-03-13T13:18:15.478Z,5.25
2024-03-13T13:20:42.830Z,5.70
2024-03-13T13:23:11.111Z,5.53
2024-03-13T13:25:38.795Z,5.18
2024-03-13T13:28:06.388Z,5.28
2024-03-13T13:30:37.666Z,5.35
2024-03-13T13:33:06.061Z,5.75
2024-03-13T13:35:33.498Z,5.60
2024-03-13T13:38:00.656Z,5.22
2024-03-13T13:40:27.469Z,4.80
2024-03-13T13:42:55.911Z,5.40
2024-03-13T13:45:28.485Z,5.10
2024-03-13T13:47:55.606Z,4.90
2024-03-13T13:50:22.956Z,4.63
2024-03-13T13:55:42.137Z,4.85
2024-03-13T13:58:09.993Z,4.80
2024-03-13T14:00:39.113Z,4.68
2024-03-13T14:03:06.152Z,5.07
2024-03-13T14:05:33.297Z,4.97
2024-03-13T14:08:00.065Z,4.90
2024-03-13T14:10:26.830Z,5.07
2024-03-13T14:12:53.704Z,4.53
2024-03-13T14:15:21.175Z,4.40
2024-03-13T14:17:50.704Z,4.60
2024-03-13T14:20:21.219Z,5.03
2024-03-13T14:22:56.436Z,4.97
2024-03-13T14:25:24.997Z,4.63
2024-03-13T14:27:51.774Z,4.30
2024-03-13T14:30:24.379Z,4.45
2024-03-13T14:32:53.097Z,5.32
2024-03-13T14:35:21.076Z,4.65
2024-03-13T14:37:48.026Z,5.22
2024-03-13T14:40:20.049Z,5.38
2024-03-13T14:42:48.096Z,4.90
2024-03-13T14:45:17.684Z,5.43
2024-03-13T14:47:47.515Z,4.70
2024-03-13T14:50:21.732Z,4.05
2024-03-13T14:55:24.148Z,4.18
2024-03-13T14:57:54.569Z,4.18
2024-03-13T15:00:24.376Z,4.43
2024-03-13T15:02:54.386Z,3.90
2024-03-13T15:05:21.778Z,4.00
2024-03-13T15:07:49.970Z,3.80
2024-03-13T15:10:19.365Z,4.47
2024-03-13T15:12:46.461Z,4.00
2024-03-13T15:15:13.343Z,3.40
2024-03-13T15:17:44.338Z,4.32
2024-03-13T15:20:14.375Z,4.70
2024-03-13T15:22:41.468Z,4.28
2024-03-13T15:25:10.895Z,3.60
2024-03-13T15:27:40.338Z,4.00
2024-03-13T15:32:54.574Z,4.13
2024-03-13T15:35:21.407Z,4.35
2024-03-13T15:37:48.101Z,3.97
2024-03-13T15:40:17.597Z,4.00
2024-03-13T15:42:45.399Z,3.90
2024-03-13T15:45:12.673Z,4.00
2024-03-13T15:47:42.134Z,4.22
2024-03-13T15:50:16.722Z,3.90
2024-03-13T15:52:51.324Z,4.15
2024-03-13T15:55:18.836Z,4.40
2024-03-13T15:57:45.638Z,3.70
2024-03-13T16:00:19.548Z,4.38
2024-03-13T16:02:46.851Z,3.97
2024-03-13T16:05:13.559Z,3.88
2024-03-13T16:07:40.585Z,4.43
2024-03-13T16:10:10.056Z,4.35
2024-03-13T16:12:36.827Z,4.60
2024-03-13T16:15:15.923Z,4.30
2024-03-13T16:17:42.817Z,4.40
2024-03-13T16:20:09.835Z,4.22
2024-03-13T16:22:36.596Z,12.02
2024-03-13T16:25:04.705Z,28.52
2024-03-13T16:27:31.694Z,5.15
2024-03-13T16:29:59.549Z,4.40
2024-03-13T16:32:26.353Z,4.50
2024-03-13T16:34:53.063Z,4.88
2024-03-13T16:37:21.466Z,4.53
2024-03-13T16:39:48.409Z,4.90
2024-03-13T16:42:15.063Z,4.65
2024-03-13T16:44:42.544Z,5.03
2024-03-13T16:47:10.741Z,5.20
2024-03-13T16:49:37.471Z,4.85
2024-03-13T16:52:04.344Z,4.30
2024-03-13T16:54:31.852Z,5.25
2024-03-13T16:56:59.316Z,6.18
2024-03-13T16:59:26.177Z,5.38
2024-03-13T17:01:52.884Z,5.03
2024-03-13T17:04:20.874Z,5.00
2024-03-13T17:06:48.179Z,5.10
2024-03-13T17:09:15.893Z,4.95
2024-03-13T17:11:46.571Z,4.93
2024-03-13T17:14:13.254Z,4.40
2024-03-13T17:16:42.478Z,4.35
2024-03-13T17:19:09.175Z,5.03
2024-03-13T17:21:36.269Z,4.57
2024-03-13T17:24:06.104Z,4.95
2024-03-13T17:26:33.975Z,4.65
2024-03-13T17:29:00.660Z,4.68
2024-03-13T17:31:28.451Z,4.88
2024-03-13T17:33:55.366Z,4.78
2024-03-13T17:36:23.338Z,5.10
2024-03-13T17:38:50.097Z,5.55
2024-03-13T17:41:16.885Z,4.93
2024-03-13T17:43:44.196Z,5.00
2024-03-13T17:46:12.829Z,5.10
2024-03-13T17:48:39.834Z,5.03
2024-03-13T17:51:11.003Z,4.45
2024-03-13T17:53:37.759Z,5.15
2024-03-13T17:56:09.597Z,4.95
2024-03-13T17:58:36.333Z,4.55
2024-03-13T18:01:03.045Z,4.85
2024-03-13T18:03:30.316Z,4.90
2024-03-13T18:05:57.241Z,5.45
2024-03-13T18:08:23.938Z,4.80
2024-03-13T18:10:50.682Z,7.53
2024-03-13T18:13:17.415Z,8.73
2024-03-13T18:15:44.987Z,4.80
2024-03-13T18:18:11.876Z,4.80
2024-03-13T18:20:40.588Z,4.40
2024-03-13T18:23:07.666Z,4.65
2024-03-13T18:25:34.659Z,4.95
2024-03-13T18:28:03.304Z,5.28
2024-03-13T18:30:30.257Z,4.97
2024-03-13T18:32:57.599Z,5.47
2024-03-13T18:35:24.709Z,5.38
2024-03-13T18:37:51.613Z,5.28
2024-03-13T18:40:18.768Z,5.07
2024-03-13T18:42:46.121Z,5.15
2024-03-13T18:45:13.368Z,5.10
2024-03-13T18:47:41.155Z,4.72
2024-03-13T18:50:08.808Z,4.93
2024-03-13T18:52:40.197Z,4.57
2024-03-13T18:55:07.289Z,4.63
2024-03-13T18:57:33.999Z,4.95
2024-03-13T19:00:01.065Z,4.82
2024-03-13T19:02:43.442Z,4.60
2024-03-13T19:05:18.286Z,4.80
2024-03-13T19:07:50.239Z,4.82
2024-03-13T19:10:23.799Z,4.75
2024-03-13T19:12:56.596Z,4.72
2024-03-13T19:15:23.522Z,4.70
2024-03-13T19:17:50.688Z,5.00
2024-03-13T19:20:17.547Z,4.88
2024-03-13T19:22:46.318Z,4.30
2024-03-13T19:25:18.313Z,4.35
2024-03-13T19:27:45.458Z,4.70
2024-03-13T19:30:12.264Z,4.90
2024-03-13T19:32:39.092Z,4.32
2024-03-13T19:35:09.182Z,4.30
2024-03-13T19:37:35.985Z,4.40
2024-03-13T19:40:06.728Z,4.22
2024-03-13T19:42:35.213Z,4.28
2024-03-13T19:45:01.975Z,5.30
2024-03-13T19:47:31.867Z,5.18
2024-03-13T19:50:01.570Z,4.47
2024-03-13T19:52:33.035Z,4.65
2024-03-13T19:55:00.293Z,4.45
2024-03-13T19:57:27.543Z,4.10
2024-03-13T19:59:54.926Z,4.30
2024-03-13T20:02:22.879Z,4.50
2024-03-13T20:04:52.546Z,4.45
2024-03-13T20:07:19.190Z,4.63
2024-03-13T20:09:45.905Z,4.20
2024-03-13T20:12:14.589Z,4.55
2024-03-13T20:14:41.481Z,4.45
2024-03-13T20:17:08.848Z,4.43
2024-03-13T20:19:36.063Z,4.57
2024-03-13T20:22:02.877Z,4.70
2024-03-13T20:24:29.602Z,4.65
2024-03-13T20:26:56.394Z,4.47
2024-03-13T20:29:23.663Z,4.72
2024-03-13T20:31:50.337Z,4.75
2024-03-13T20:34:16.995Z,4.72
2024-03-13T20:36:43.979Z,4.60
2024-03-13T20:39:13.273Z,4.72
2024-03-13T20:41:40.052Z,4.32
2024-03-13T20:44:06.740Z,4.85
2024-03-13T20:46:34.490Z,4.53
2024-03-13T20:49:01.274Z,4.60
2024-03-13T20:51:28.431Z,5.20
2024-03-13T20:53:55.612Z,4.90
2024-03-13T20:56:22.945Z,5.15
2024-03-13T20:58:51.536Z,4.38
2024-03-13T21:01:20.957Z,5.00
2024-03-13T21:03:47.721Z,4.35
2024-03-13T21:06:14.494Z,4.75
2024-03-13T21:08:41.314Z,5.00
2024-03-13T21:11:08.804Z,4.70
2024-03-13T21:13:36.618Z,4.35
2024-03-13T21:16:05.200Z,4.78
2024-03-13T21:18:39.740Z,4.97
2024-03-13T21:21:07.012Z,4.93
2024-03-13T21:23:36.726Z,5.13
2024-03-13T21:26:09.581Z,4.80
2024-03-13T21:28:36.398Z,4.93
2024-03-13T21:31:03.792Z,5.10
2024-03-13T21:33:30.601Z,4.85
2024-03-13T21:35:57.397Z,5.07
2024-03-13T21:38:24.301Z,4.68
2024-03-13T21:40:51.000Z,5.30
2024-03-13T21:43:17.685Z,5.00
2024-03-13T21:45:44.425Z,5.75
2024-03-13T21:48:12.986Z,5.82
2024-03-13T21:50:39.992Z,5.18
2024-03-13T21:53:06.915Z,4.88
2024-03-13T21:55:33.745Z,4.68
2024-03-13T21:58:01.159Z,4.72
2024-03-13T22:00:28.681Z,5.78
2024-03-13T22:02:56.111Z,4.97
2024-03-13T22:05:22.996Z,5.30
2024-03-13T22:07:49.825Z,5.22
2024-03-13T22:10:17.004Z,5.25
2024-03-13T22:12:43.712Z,5.07
2024-03-13T22:15:12.483Z,4.90
2024-03-13T22:17:39.311Z,4.95
2024-03-13T22:20:08.482Z,5.18
2024-03-13T22:22:35.203Z,5.47
2024-03-13T22:25:01.910Z,5.07
2024-03-13T22:27:29.156Z,5.47
2024-03-13T22:29:56.089Z,5.13
2024-03-13T22:32:22.872Z,4.85
2024-03-13T22:34:49.606Z,5.28
2024-03-13T22:37:16.277Z,4.88
2024-03-13T22:39:43.288Z,5.22
2024-03-13T22:42:11.244Z,5.57
2024-03-13T22:44:38.010Z,5.65
2024-03-13T22:47:06.478Z,5.88
2024-03-13T22:49:33.523Z,5.45
2024-03-13T22:52:00.324Z,5.47
2024-03-13T22:54:27.311Z,5.75
2024-03-13T22:56:54.055Z,5.75
2024-03-13T22:59:21.132Z,5.25
2024-03-13T23:01:50.660Z,5.88
2024-03-13T23:04:17.464Z,5.13
2024-03-13T23:06:47.004Z,5.60
2024-03-13T23:09:14.054Z,5.70
2024-03-13T23:11:41.849Z,5.50
2024-03-13T23:14:09.967Z,6.15
2024-03-13T23:16:36.742Z,6.00
2024-03-13T23:19:03.754Z,6.38
2024-03-13T23:21:30.505Z,6.30
2024-03-13T23:23:57.478Z,6.35
2024-03-13T23:26:25.203Z,6.30
2024-03-13T23:28:51.964Z,6.65
2024-03-13T23:31:18.993Z,6.57
2024-03-13T23:33:45.807Z,6.65
2024-03-13T23:36:13.304Z,6.80
2024-03-13T23:38:42.948Z,6.70
2024-03-13T23:41:17.207Z,6.72
2024-03-13T23:43:47.143Z,6.95
2024-03-13T23:46:14.571Z,7.28
2024-03-13T23:48:41.382Z,7.68
2024-03-13T23:51:09.610Z,7.35
2024-03-13T23:53:36.329Z,7.75
2024-03-13T23:56:03.434Z,8.52
2024-03-13T23:58:30.457Z,7.53
